Main page
METAR-TAF:

METAR-TAF

Airports :

Mariehamn Airport

Mariehamn, Finland

latitude: 60-07N, longitude: 019-54E, elevation: 6 m

Current weather observation

The report was made 16 minutes ago, at 17:50 UTC
Wind 8 kt from the South/Southwest
Temperature 18°C
Humidity 100%
Pressure 1011 hPa
Visibility 10 km or more
Broken clouds at a height of 400 ft

METAR: EFMA 231750Z AUTO 20008KT 9999 BKN004 18/18 Q1011

Time: 21:06 (18:06 UTC)

Forecast

The report was made 29 minutes ago, at 17:37 UTC
Forecast valid from 23 at 18 UTC to 24 at 03 UTC
Wind 4 kt from the South
Visibility 10 km or more
Broken clouds at a height of 100 ft
Becoming
from 23 at 18 UTC to 23 at 19 UTC
Broken clouds at a height of 500 ft
Becoming
from 23 at 19 UTC to 23 at 20 UTC
Visibility: 4000 m
Broken clouds at a height of 300 ft
mist
Becoming
from 23 at 20 UTC to 23 at 22 UTC
Visibility: 0400 m
at a height of 100 ft
fog,

TAF: EFMA 231737Z 2318/2403 19004KT 9999 BKN001 BECMG 2318/2319 BKN005 BECMG 2319/2320 4000 BR BKN003 BECMG 2320/2322 0400 FG VV001

Weather observations and forecasts of more than 4000 airports (METAR and TAF reports).

The available stations are represented by yellow and red dots on the map.

Hover mouse over dot to see the name of the station.

Then click to see weather observations and forecasts.

To change the map : click on the green buttons with a black cross to zoom in, on the green button with a dash to zoom out, or on the green arrows for adjacent maps.


METAR-TAF: